sensor_id;sensor_type;location;lat;lon;timestamp;P1;durP1;ratioP1;P2;durP2;ratioP2
8066;SDS011;4076;48.076;9.118;2024-03-02T00:00:36;13.80;;;10.83;;
8066;SDS011;4076;48.076;9.118;2024-03-02T00:03:02;14.77;;;12.40;;
8066;SDS011;4076;48.076;9.118;2024-03-02T00:05:28;15.10;;;10.73;;
8066;SDS011;4076;48.076;9.118;2024-03-02T00:07:57;15.07;;;11.93;;
8066;SDS011;4076;48.076;9.118;2024-03-02T00:10:26;19.43;;;13.47;;
8066;SDS011;4076;48.076;9.118;2024-03-02T00:13:02;19.10;;;12.27;;
8066;SDS011;4076;48.076;9.118;2024-03-02T00:18:07;20.27;;;14.00;;
8066;SDS011;4076;48.076;9.118;2024-03-02T00:20:36;18.90;;;15.47;;
8066;SDS011;4076;48.076;9.118;2024-03-02T00:23:03;12.27;;;9.40;;
8066;SDS011;4076;48.076;9.118;2024-03-02T00:25:49;11.67;;;10.27;;
8066;SDS011;4076;48.076;9.118;2024-03-02T00:28:24;13.17;;;11.03;;
8066;SDS011;4076;48.076;9.118;2024-03-02T00:33:37;16.33;;;14.10;;
8066;SDS011;4076;48.076;9.118;2024-03-02T00:36:06;17.53;;;14.40;;
8066;SDS011;4076;48.076;9.118;2024-03-02T00:38:33;16.77;;;11.30;;
8066;SDS011;4076;48.076;9.118;2024-03-02T00:41:01;14.10;;;10.47;;
8066;SDS011;4076;48.076;9.118;2024-03-02T00:46:17;13.83;;;11.90;;
8066;SDS011;4076;48.076;9.118;2024-03-02T00:51:22;14.37;;;11.10;;
8066;SDS011;4076;48.076;9.118;2024-03-02T00:53:50;11.20;;;9.87;;
8066;SDS011;4076;48.076;9.118;2024-03-02T00:56:23;9.43;;;7.93;;
8066;SDS011;4076;48.076;9.118;2024-03-02T00:58:49;13.77;;;10.20;;
8066;SDS011;4076;48.076;9.118;2024-03-02T01:01:15;10.27;;;9.23;;
8066;SDS011;4076;48.076;9.118;2024-03-02T01:03:41;11.43;;;9.27;;
8066;SDS011;4076;48.076;9.118;2024-03-02T01:06:07;12.73;;;8.10;;
8066;SDS011;4076;48.076;9.118;2024-03-02T01:08:36;13.70;;;9.13;;
8066;SDS011;4076;48.076;9.118;2024-03-02T01:11:03;11.33;;;8.53;;
8066;SDS011;4076;48.076;9.118;2024-03-02T01:13:29;11.67;;;8.47;;
8066;SDS011;4076;48.076;9.118;2024-03-02T01:15:55;11.90;;;8.60;;
8066;SDS011;4076;48.076;9.118;2024-03-02T01:18:21;10.40;;;8.13;;
8066;SDS011;4076;48.076;9.118;2024-03-02T01:20:47;9.77;;;8.30;;
8066;SDS011;4076;48.076;9.118;2024-03-02T01:23:13;8.27;;;7.47;;
8066;SDS011;4076;48.076;9.118;2024-03-02T01:25:39;8.77;;;6.37;;
8066;SDS011;4076;48.076;9.118;2024-03-02T01:28:05;14.63;;;8.53;;
8066;SDS011;4076;48.076;9.118;2024-03-02T01:30:30;13.50;;;8.40;;
8066;SDS011;4076;48.076;9.118;2024-03-02T01:32:56;10.10;;;7.80;;
8066;SDS011;4076;48.076;9.118;2024-03-02T01:35:23;9.87;;;8.23;;
8066;SDS011;4076;48.076;9.118;2024-03-02T01:37:49;9.60;;;7.80;;
8066;SDS011;4076;48.076;9.118;2024-03-02T01:40:15;7.60;;;6.10;;
8066;SDS011;4076;48.076;9.118;2024-03-02T01:42:40;9.90;;;7.00;;
8066;SDS011;4076;48.076;9.118;2024-03-02T01:45:06;8.20;;;6.50;;
8066;SDS011;4076;48.076;9.118;2024-03-02T01:47:33;13.27;;;8.23;;
8066;SDS011;4076;48.076;9.118;2024-03-02T01:49:59;11.63;;;6.57;;
8066;SDS011;4076;48.076;9.118;2024-03-02T01:52:26;7.97;;;7.17;;
8066;SDS011;4076;48.076;9.118;2024-03-02T01:54:52;13.10;;;8.30;;
8066;SDS011;4076;48.076;9.118;2024-03-02T01:57:17;11.40;;;6.30;;
8066;SDS011;4076;48.076;9.118;2024-03-02T01:59:43;11.90;;;7.63;;
8066;SDS011;4076;48.076;9.118;2024-03-02T02:02:10;10.10;;;7.63;;
8066;SDS011;4076;48.076;9.118;2024-03-02T02:04:35;13.37;;;7.83;;
8066;SDS011;4076;48.076;9.118;2024-03-02T02:07:01;8.57;;;7.63;;
8066;SDS011;4076;48.076;9.118;2024-03-02T02:09:26;10.50;;;7.57;;
8066;SDS011;4076;48.076;9.118;2024-03-02T02:11:52;10.37;;;6.67;;
8066;SDS011;4076;48.076;9.118;2024-03-02T02:14:17;19.20;;;9.03;;
8066;SDS011;4076;48.076;9.118;2024-03-02T02:16:43;13.37;;;11.23;;
8066;SDS011;4076;48.076;9.118;2024-03-02T02:19:09;14.80;;;9.33;;
8066;SDS011;4076;48.076;9.118;2024-03-02T02:21:35;14.70;;;12.53;;
8066;SDS011;4076;48.076;9.118;2024-03-02T02:24:01;19.70;;;11.33;;
8066;SDS011;4076;48.076;9.118;2024-03-02T02:26:28;14.97;;;10.63;;
8066;SDS011;4076;48.076;9.118;2024-03-02T02:28:54;12.63;;;11.43;;
8066;SDS011;4076;48.076;9.118;2024-03-02T02:31:20;8.93;;;6.80;;
8066;SDS011;4076;48.076;9.118;2024-03-02T02:33:45;8.00;;;6.03;;
8066;SDS011;4076;48.076;9.118;2024-03-02T02:36:11;8.17;;;6.50;;
8066;SDS011;4076;48.076;9.118;2024-03-02T02:38:38;8.27;;;5.97;;
8066;SDS011;4076;48.076;9.118;2024-03-02T02:41:07;11.33;;;7.33;;
8066;SDS011;4076;48.076;9.118;2024-03-02T02:43:33;13.10;;;6.80;;
8066;SDS011;4076;48.076;9.118;2024-03-02T02:45:59;10.30;;;7.17;;
8066;SDS011;4076;48.076;9.118;2024-03-02T02:48:24;12.90;;;8.10;;
8066;SDS011;4076;48.076;9.118;2024-03-02T02:50:50;13.60;;;10.37;;
8066;SDS011;4076;48.076;9.118;2024-03-02T02:53:16;12.17;;;7.63;;
8066;SDS011;4076;48.076;9.118;2024-03-02T02:55:41;12.67;;;11.17;;
8066;SDS011;4076;48.076;9.118;2024-03-02T02:58:08;12.90;;;10.73;;
8066;SDS011;4076;48.076;9.118;2024-03-02T03:00:34;20.00;;;13.97;;
8066;SDS011;4076;48.076;9.118;2024-03-02T03:03:01;12.80;;;8.93;;
8066;SDS011;4076;48.076;9.118;2024-03-02T03:05:27;11.03;;;7.77;;
8066;SDS011;4076;48.076;9.118;2024-03-02T03:07:53;11.57;;;7.83;;
8066;SDS011;4076;48.076;9.118;2024-03-02T03:10:19;13.60;;;9.87;;
8066;SDS011;4076;48.076;9.118;2024-03-02T03:12:47;13.70;;;9.30;;
8066;SDS011;4076;48.076;9.118;2024-03-02T03:15:12;9.93;;;8.17;;
8066;SDS011;4076;48.076;9.118;2024-03-02T03:17:39;9.57;;;8.47;;
8066;SDS011;4076;48.076;9.118;2024-03-02T03:20:05;12.93;;;10.37;;
8066;SDS011;4076;48.076;9.118;2024-03-02T03:22:34;11.80;;;7.63;;
8066;SDS011;4076;48.076;9.118;2024-03-02T03:25:00;12.53;;;8.77;;
8066;SDS011;4076;48.076;9.118;2024-03-02T03:27:26;12.57;;;9.33;;
8066;SDS011;4076;48.076;9.118;2024-03-02T03:29:52;13.00;;;10.37;;
8066;SDS011;4076;48.076;9.118;2024-03-02T03:32:17;13.07;;;10.10;;
8066;SDS011;4076;48.076;9.118;2024-03-02T03:34:43;9.73;;;7.00;;
8066;SDS011;4076;48.076;9.118;2024-03-02T03:37:08;11.40;;;8.10;;
8066;SDS011;4076;48.076;9.118;2024-03-02T03:39:34;11.77;;;10.57;;
8066;SDS011;4076;48.076;9.118;2024-03-02T03:42:03;11.50;;;9.33;;
8066;SDS011;4076;48.076;9.118;2024-03-02T03:44:29;18.60;;;11.27;;
8066;SDS011;4076;48.076;9.118;2024-03-02T03:46:54;14.00;;;9.33;;
8066;SDS011;4076;48.076;9.118;2024-03-02T03:49:20;12.63;;;9.83;;
8066;SDS011;4076;48.076;9.118;2024-03-02T03:51:45;12.33;;;10.03;;
8066;SDS011;4076;48.076;9.118;2024-03-02T03:54:11;18.67;;;11.60;;
8066;SDS011;4076;48.076;9.118;2024-03-02T03:56:37;9.27;;;8.10;;
8066;SDS011;4076;48.076;9.118;2024-03-02T03:59:02;12.60;;;7.53;;
8066;SDS011;4076;48.076;9.118;2024-03-02T04:01:29;9.00;;;8.10;;
8066;SDS011;4076;48.076;9.118;2024-03-02T04:03:55;11.67;;;8.60;;
8066;SDS011;4076;48.076;9.118;2024-03-02T04:06:20;11.40;;;7.67;;
8066;SDS011;4076;48.076;9.118;2024-03-02T04:08:46;15.40;;;12.13;;
8066;SDS011;4076;48.076;9.118;2024-03-02T04:11:11;13.20;;;10.43;;
8066;SDS011;4076;48.076;9.118;2024-03-02T04:13:37;10.77;;;9.03;;
8066;SDS011;4076;48.076;9.118;2024-03-02T04:16:03;13.87;;;10.10;;
8066;SDS011;4076;48.076;9.118;2024-03-02T04:18:30;12.57;;;10.67;;
8066;SDS011;4076;48.076;9.118;2024-03-02T04:20:57;11.30;;;8.20;;
8066;SDS011;4076;48.076;9.118;2024-03-02T04:23:24;13.23;;;9.47;;
8066;SDS011;4076;48.076;9.118;2024-03-02T04:25:50;12.03;;;9.33;;
8066;SDS011;4076;48.076;9.118;2024-03-02T04:28:15;14.33;;;10.63;;
8066;SDS011;4076;48.076;9.118;2024-03-02T04:30:41;11.97;;;7.90;;
8066;SDS011;4076;48.076;9.118;2024-03-02T04:33:07;12.77;;;11.47;;
8066;SDS011;4076;48.076;9.118;2024-03-02T04:35:34;12.43;;;9.90;;
8066;SDS011;4076;48.076;9.118;2024-03-02T04:38:00;13.00;;;10.80;;
8066;SDS011;4076;48.076;9.118;2024-03-02T04:40:26;10.23;;;9.10;;
8066;SDS011;4076;48.076;9.118;2024-03-02T04:42:51;15.93;;;10.90;;
8066;SDS011;4076;48.076;9.118;2024-03-02T04:45:18;11.80;;;9.83;;
8066;SDS011;4076;48.076;9.118;2024-03-02T04:47:43;15.30;;;11.13;;
8066;SDS011;4076;48.076;9.118;2024-03-02T04:50:09;12.83;;;9.13;;
8066;SDS011;4076;48.076;9.118;2024-03-02T04:52:35;12.93;;;8.43;;
8066;SDS011;4076;48.076;9.118;2024-03-02T04:55:01;10.43;;;7.10;;
8066;SDS011;4076;48.076;9.118;2024-03-02T04:57:56;12.70;;;9.00;;
8066;SDS011;4076;48.076;9.118;2024-03-02T05:00:21;15.33;;;9.90;;
8066;SDS011;4076;48.076;9.118;2024-03-02T05:02:47;9.87;;;8.90;;
8066;SDS011;4076;48.076;9.118;2024-03-02T05:05:13;9.43;;;7.30;;
8066;SDS011;4076;48.076;9.118;2024-03-02T05:07:40;13.00;;;9.70;;
8066;SDS011;4076;48.076;9.118;2024-03-02T05:10:07;11.90;;;10.17;;
8066;SDS011;4076;48.076;9.118;2024-03-02T05:12:33;10.07;;;8.63;;
8066;SDS011;4076;48.076;9.118;2024-03-02T05:15:08;12.33;;;11.10;;
8066;SDS011;4076;48.076;9.118;2024-03-02T05:17:35;13.57;;;10.03;;
8066;SDS011;4076;48.076;9.118;2024-03-02T05:20:02;14.17;;;9.70;;
8066;SDS011;4076;48.076;9.118;2024-03-02T05:22:28;11.30;;;8.10;;
8066;SDS011;4076;48.076;9.118;2024-03-02T05:24:54;14.90;;;11.40;;
8066;SDS011;4076;48.076;9.118;2024-03-02T05:27:19;14.73;;;9.30;;
8066;SDS011;4076;48.076;9.118;2024-03-02T05:29:45;10.87;;;9.40;;
8066;SDS011;4076;48.076;9.118;2024-03-02T05:32:12;12.50;;;9.03;;
8066;SDS011;4076;48.076;9.118;2024-03-02T05:34:37;17.40;;;12.53;;
8066;SDS011;4076;48.076;9.118;2024-03-02T05:37:03;13.10;;;9.23;;
8066;SDS011;4076;48.076;9.118;2024-03-02T05:39:28;10.60;;;8.50;;
8066;SDS011;4076;48.076;9.118;2024-03-02T05:41:54;10.17;;;8.13;;
8066;SDS011;4076;48.076;9.118;2024-03-02T05:44:19;12.17;;;8.80;;
8066;SDS011;4076;48.076;9.118;2024-03-02T05:46:45;10.93;;;9.83;;
8066;SDS011;4076;48.076;9.118;2024-03-02T05:49:11;11.73;;;9.60;;
8066;SDS011;4076;48.076;9.118;2024-03-02T05:51:37;11.97;;;9.80;;
8066;SDS011;4076;48.076;9.118;2024-03-02T05:54:02;12.27;;;9.03;;
8066;SDS011;4076;48.076;9.118;2024-03-02T05:56:28;10.70;;;7.33;;
8066;SDS011;4076;48.076;9.118;2024-03-02T05:58:53;11.83;;;8.73;;
8066;SDS011;4076;48.076;9.118;2024-03-02T06:01:41;9.67;;;7.93;;
8066;SDS011;4076;48.076;9.118;2024-03-02T06:04:07;10.30;;;7.50;;
8066;SDS011;4076;48.076;9.118;2024-03-02T06:06:34;10.40;;;9.00;;
8066;SDS011;4076;48.076;9.118;2024-03-02T06:09:00;12.57;;;9.67;;
8066;SDS011;4076;48.076;9.118;2024-03-02T06:11:27;10.03;;;7.37;;
8066;SDS011;4076;48.076;9.118;2024-03-02T06:13:53;12.90;;;8.67;;
8066;SDS011;4076;48.076;9.118;2024-03-02T06:16:18;12.70;;;9.53;;
8066;SDS011;4076;48.076;9.118;2024-03-02T06:18:44;13.10;;;10.93;;
8066;SDS011;4076;48.076;9.118;2024-03-02T06:21:10;15.97;;;13.67;;
8066;SDS011;4076;48.076;9.118;2024-03-02T06:23:35;14.23;;;10.80;;
8066;SDS011;4076;48.076;9.118;2024-03-02T06:26:01;11.93;;;9.83;;
8066;SDS011;4076;48.076;9.118;2024-03-02T06:28:27;16.90;;;11.63;;
8066;SDS011;4076;48.076;9.118;2024-03-02T06:30:53;15.27;;;10.97;;
8066;SDS011;4076;48.076;9.118;2024-03-02T06:33:19;17.47;;;11.73;;
8066;SDS011;4076;48.076;9.118;2024-03-02T06:35:44;16.37;;;10.90;;
8066;SDS011;4076;48.076;9.118;2024-03-02T06:38:10;12.17;;;10.07;;
8066;SDS011;4076;48.076;9.118;2024-03-02T06:40:35;14.30;;;11.40;;
8066;SDS011;4076;48.076;9.118;2024-03-02T06:43:03;9.50;;;8.57;;
8066;SDS011;4076;48.076;9.118;2024-03-02T06:45:29;14.13;;;9.77;;
8066;SDS011;4076;48.076;9.118;2024-03-02T06:47:55;13.30;;;9.80;;
8066;SDS011;4076;48.076;9.118;2024-03-02T06:50:21;14.47;;;10.30;;
8066;SDS011;4076;48.076;9.118;2024-03-02T06:52:47;14.97;;;12.23;;
8066;SDS011;4076;48.076;9.118;2024-03-02T06:55:12;14.40;;;12.03;;
8066;SDS011;4076;48.076;9.118;2024-03-02T06:57:38;16.40;;;10.77;;
8066;SDS011;4076;48.076;9.118;2024-03-02T07:00:03;18.70;;;11.73;;
8066;SDS011;4076;48.076;9.118;2024-03-02T07:02:30;12.47;;;9.47;;
8066;SDS011;4076;48.076;9.118;2024-03-02T07:04:55;14.03;;;10.43;;
8066;SDS011;4076;48.076;9.118;2024-03-02T07:07:21;17.00;;;12.53;;
8066;SDS011;4076;48.076;9.118;2024-03-02T07:09:46;14.53;;;12.57;;
8066;SDS011;4076;48.076;9.118;2024-03-02T07:12:13;17.60;;;11.33;;
8066;SDS011;4076;48.076;9.118;2024-03-02T07:14:38;16.57;;;12.40;;
8066;SDS011;4076;48.076;9.118;2024-03-02T07:17:20;17.73;;;11.33;;
8066;SDS011;4076;48.076;9.118;2024-03-02T07:19:46;25.80;;;17.83;;
8066;SDS011;4076;48.076;9.118;2024-03-02T07:22:11;24.23;;;16.30;;
8066;SDS011;4076;48.076;9.118;2024-03-02T07:24:40;26.90;;;15.07;;
8066;SDS011;4076;48.076;9.118;2024-03-02T07:27:06;26.10;;;15.27;;
8066;SDS011;4076;48.076;9.118;2024-03-02T07:29:32;15.20;;;12.07;;
8066;SDS011;4076;48.076;9.118;2024-03-02T07:31:58;22.10;;;13.80;;
8066;SDS011;4076;48.076;9.118;2024-03-02T07:34:24;22.13;;;14.50;;
8066;SDS011;4076;48.076;9.118;2024-03-02T07:36:49;23.13;;;13.70;;
8066;SDS011;4076;48.076;9.118;2024-03-02T07:39:15;19.67;;;13.20;;
8066;SDS011;4076;48.076;9.118;2024-03-02T07:41:41;20.37;;;14.70;;
8066;SDS011;4076;48.076;9.118;2024-03-02T07:44:06;20.67;;;13.07;;
8066;SDS011;4076;48.076;9.118;2024-03-02T07:46:32;19.33;;;15.40;;
8066;SDS011;4076;48.076;9.118;2024-03-02T07:48:58;17.90;;;13.83;;
8066;SDS011;4076;48.076;9.118;2024-03-02T07:51:23;23.57;;;13.07;;
8066;SDS011;4076;48.076;9.118;2024-03-02T07:53:49;19.80;;;13.70;;
8066;SDS011;4076;48.076;9.118;2024-03-02T07:56:14;19.17;;;15.77;;
8066;SDS011;4076;48.076;9.118;2024-03-02T07:58:47;15.37;;;10.40;;
8066;SDS011;4076;48.076;9.118;2024-03-02T08:01:14;14.80;;;10.97;;
8066;SDS011;4076;48.076;9.118;2024-03-02T08:03:39;17.90;;;11.60;;
8066;SDS011;4076;48.076;9.118;2024-03-02T08:06:05;17.40;;;12.17;;
8066;SDS011;4076;48.076;9.118;2024-03-02T08:08:31;16.30;;;11.03;;
8066;SDS011;4076;48.076;9.118;2024-03-02T08:10:57;13.07;;;9.73;;
8066;SDS011;4076;48.076;9.118;2024-03-02T08:13:22;14.57;;;10.40;;
8066;SDS011;4076;48.076;9.118;2024-03-02T08:15:48;11.97;;;7.67;;
8066;SDS011;4076;48.076;9.118;2024-03-02T08:18:14;9.67;;;8.73;;
8066;SDS011;4076;48.076;9.118;2024-03-02T08:20:40;13.60;;;9.10;;
8066;SDS011;4076;48.076;9.118;2024-03-02T08:23:06;10.40;;;7.67;;
8066;SDS011;4076;48.076;9.118;2024-03-02T08:25:31;15.07;;;9.60;;
8066;SDS011;4076;48.076;9.118;2024-03-02T08:27:57;11.40;;;8.80;;
8066;SDS011;4076;48.076;9.118;2024-03-02T08:30:23;12.23;;;8.50;;
8066;SDS011;4076;48.076;9.118;2024-03-02T08:32:48;11.77;;;9.10;;
8066;SDS011;4076;48.076;9.118;2024-03-02T08:35:14;11.87;;;8.87;;
8066;SDS011;4076;48.076;9.118;2024-03-02T08:37:40;7.43;;;6.63;;
8066;SDS011;4076;48.076;9.118;2024-03-02T08:40:08;12.40;;;8.33;;
8066;SDS011;4076;48.076;9.118;2024-03-02T08:42:33;9.20;;;8.27;;
8066;SDS011;4076;48.076;9.118;2024-03-02T08:44:59;12.60;;;8.60;;
8066;SDS011;4076;48.076;9.118;2024-03-02T08:47:26;8.80;;;7.63;;
8066;SDS011;4076;48.076;9.118;2024-03-02T08:49:52;10.87;;;7.43;;
8066;SDS011;4076;48.076;9.118;2024-03-02T08:52:18;10.47;;;7.20;;
8066;SDS011;4076;48.076;9.118;2024-03-02T08:54:43;11.43;;;10.40;;
8066;SDS011;4076;48.076;9.118;2024-03-02T08:57:09;9.53;;;8.03;;
8066;SDS011;4076;48.076;9.118;2024-03-02T08:59:35;13.23;;;9.63;;
8066;SDS011;4076;48.076;9.118;2024-03-02T09:02:00;8.93;;;7.50;;
8066;SDS011;4076;48.076;9.118;2024-03-02T09:04:26;9.43;;;8.10;;
8066;SDS011;4076;48.076;9.118;2024-03-02T09:06:52;8.70;;;6.70;;
8066;SDS011;4076;48.076;9.118;2024-03-02T09:09:18;11.00;;;8.87;;
8066;SDS011;4076;48.076;9.118;2024-03-02T09:11:43;7.20;;;6.50;;
8066;SDS011;4076;48.076;9.118;2024-03-02T09:14:11;10.10;;;7.07;;
8066;SDS011;4076;48.076;9.118;2024-03-02T09:16:37;8.07;;;7.23;;
8066;SDS011;4076;48.076;9.118;2024-03-02T09:19:03;5.70;;;5.20;;
8066;SDS011;4076;48.076;9.118;2024-03-02T09:21:28;6.73;;;5.97;;
8066;SDS011;4076;48.076;9.118;2024-03-02T09:23:55;6.27;;;5.77;;
8066;SDS011;4076;48.076;9.118;2024-03-02T09:26:21;8.53;;;7.90;;
8066;SDS011;4076;48.076;9.118;2024-03-02T09:28:49;8.90;;;8.30;;
8066;SDS011;4076;48.076;9.118;2024-03-02T09:31:40;8.40;;;7.60;;
8066;SDS011;4076;48.076;9.118;2024-03-02T09:34:08;9.40;;;8.60;;
8066;SDS011;4076;48.076;9.118;2024-03-02T09:36:35;6.40;;;6.00;;
8066;SDS011;4076;48.076;9.118;2024-03-02T09:39:04;6.93;;;6.50;;
8066;SDS011;4076;48.076;9.118;2024-03-02T09:41:34;5.90;;;5.50;;
8066;SDS011;4076;48.076;9.118;2024-03-02T09:44:02;6.13;;;5.80;;
8066;SDS011;4076;48.076;9.118;2024-03-02T09:46:27;6.80;;;6.40;;
8066;SDS011;4076;48.076;9.118;2024-03-02T09:48:53;5.73;;;5.43;;
8066;SDS011;4076;48.076;9.118;2024-03-02T09:51:20;7.10;;;6.60;;
8066;SDS011;4076;48.076;9.118;2024-03-02T09:53:46;5.60;;;5.20;;
8066;SDS011;4076;48.076;9.118;2024-03-02T09:56:12;5.63;;;5.33;;
8066;SDS011;4076;48.076;9.118;2024-03-02T09:58:38;4.67;;;4.17;;
8066;SDS011;4076;48.076;9.118;2024-03-02T10:01:07;6.30;;;5.93;;
8066;SDS011;4076;48.076;9.118;2024-03-02T10:03:33;5.33;;;5.03;;
8066;SDS011;4076;48.076;9.118;2024-03-02T10:08:43;5.80;;;5.47;;
8066;SDS011;4076;48.076;9.118;2024-03-02T10:11:09;6.23;;;5.83;;
8066;SDS011;4076;48.076;9.118;2024-03-02T10:13:35;5.97;;;5.57;;
8066;SDS011;4076;48.076;9.118;2024-03-02T10:16:10;5.80;;;5.40;;
8066;SDS011;4076;48.076;9.118;2024-03-02T10:18:37;5.90;;;5.47;;
8066;SDS011;4076;48.076;9.118;2024-03-02T10:21:13;5.43;;;5.03;;
8066;SDS011;4076;48.076;9.118;2024-03-02T10:23:40;6.17;;;5.70;;
8066;SDS011;4076;48.076;9.118;2024-03-02T10:26:17;6.00;;;5.60;;
8066;SDS011;4076;48.076;9.118;2024-03-02T10:28:46;6.47;;;5.97;;
8066;SDS011;4076;48.076;9.118;2024-03-02T10:31:24;5.40;;;5.00;;
8066;SDS011;4076;48.076;9.118;2024-03-02T10:33:52;6.37;;;5.30;;
8066;SDS011;4076;48.076;9.118;2024-03-02T10:36:22;6.13;;;5.67;;
8066;SDS011;4076;48.076;9.118;2024-03-02T10:38:48;5.50;;;5.10;;
8066;SDS011;4076;48.076;9.118;2024-03-02T10:41:18;6.50;;;5.87;;
8066;SDS011;4076;48.076;9.118;2024-03-02T10:43:44;5.53;;;5.03;;
8066;SDS011;4076;48.076;9.118;2024-03-02T10:46:12;7.00;;;6.17;;
8066;SDS011;4076;48.076;9.118;2024-03-02T10:48:41;5.80;;;5.30;;
8066;SDS011;4076;48.076;9.118;2024-03-02T10:51:10;6.13;;;5.60;;
8066;SDS011;4076;48.076;9.118;2024-03-02T10:53:36;5.73;;;5.20;;
8066;SDS011;4076;48.076;9.118;2024-03-02T10:56:02;6.07;;;5.37;;
8066;SDS011;4076;48.076;9.118;2024-03-02T10:58:32;5.80;;;5.30;;
8066;SDS011;4076;48.076;9.118;2024-03-02T11:01:02;6.43;;;5.43;;
8066;SDS011;4076;48.076;9.118;2024-03-02T11:03:33;6.47;;;5.97;;
8066;SDS011;4076;48.076;9.118;2024-03-02T11:06:00;6.93;;;6.23;;
8066;SDS011;4076;48.076;9.118;2024-03-02T11:08:32;5.67;;;5.17;;
8066;SDS011;4076;48.076;9.118;2024-03-02T11:11:02;6.53;;;5.77;;
8066;SDS011;4076;48.076;9.118;2024-03-02T11:13:38;5.57;;;5.10;;
8066;SDS011;4076;48.076;9.118;2024-03-02T11:16:09;6.63;;;6.03;;
8066;SDS011;4076;48.076;9.118;2024-03-02T11:18:43;6.23;;;5.63;;
8066;SDS011;4076;48.076;9.118;2024-03-02T11:21:09;6.37;;;5.77;;
8066;SDS011;4076;48.076;9.118;2024-03-02T11:23:35;5.77;;;5.27;;
8066;SDS011;4076;48.076;9.118;2024-03-02T11:26:17;7.90;;;6.00;;
8066;SDS011;4076;48.076;9.118;2024-03-02T11:28:43;5.67;;;5.17;;
8066;SDS011;4076;48.076;9.118;2024-03-02T11:31:10;7.00;;;6.40;;
8066;SDS011;4076;48.076;9.118;2024-03-02T11:33:35;6.07;;;5.47;;
8066;SDS011;4076;48.076;9.118;2024-03-02T11:36:01;5.30;;;4.67;;
8066;SDS011;4076;48.076;9.118;2024-03-02T11:38:30;6.73;;;5.97;;
8066;SDS011;4076;48.076;9.118;2024-03-02T11:40:57;6.03;;;5.43;;
8066;SDS011;4076;48.076;9.118;2024-03-02T11:43:25;7.67;;;6.40;;
8066;SDS011;4076;48.076;9.118;2024-03-02T11:45:59;4.87;;;4.47;;
8066;SDS011;4076;48.076;9.118;2024-03-02T11:48:26;6.30;;;5.57;;
8066;SDS011;4076;48.076;9.118;2024-03-02T11:50:52;5.13;;;4.67;;
8066;SDS011;4076;48.076;9.118;2024-03-02T11:53:18;4.47;;;4.17;;
8066;SDS011;4076;48.076;9.118;2024-03-02T11:55:45;5.17;;;4.77;;
8066;SDS011;4076;48.076;9.118;2024-03-02T11:58:11;5.40;;;5.00;;
8066;SDS011;4076;48.076;9.118;2024-03-02T12:00:37;4.07;;;3.77;;
8066;SDS011;4076;48.076;9.118;2024-03-02T12:03:04;5.40;;;5.00;;
8066;SDS011;4076;48.076;9.118;2024-03-02T12:05:31;4.77;;;4.33;;
8066;SDS011;4076;48.076;9.118;2024-03-02T12:08:01;3.83;;;3.60;;
8066;SDS011;4076;48.076;9.118;2024-03-02T12:10:28;6.17;;;5.67;;
8066;SDS011;4076;48.076;9.118;2024-03-02T12:13:04;3.67;;;3.37;;
8066;SDS011;4076;48.076;9.118;2024-03-02T12:15:37;4.97;;;4.57;;
8066;SDS011;4076;48.076;9.118;2024-03-02T12:18:03;4.00;;;3.60;;
8066;SDS011;4076;48.076;9.118;2024-03-02T12:20:30;4.60;;;4.30;;
8066;SDS011;4076;48.076;9.118;2024-03-02T12:23:00;4.00;;;3.60;;
8066;SDS011;4076;48.076;9.118;2024-03-02T12:25:27;4.30;;;3.97;;
8066;SDS011;4076;48.076;9.118;2024-03-02T12:27:54;4.63;;;3.60;;
8066;SDS011;4076;48.076;9.118;2024-03-02T12:30:21;3.93;;;3.63;;
8066;SDS011;4076;48.076;9.118;2024-03-02T12:32:47;5.73;;;5.23;;
8066;SDS011;4076;48.076;9.118;2024-03-02T12:35:13;3.00;;;2.80;;
8066;SDS011;4076;48.076;9.118;2024-03-02T12:37:48;3.10;;;2.83;;
8066;SDS011;4076;48.076;9.118;2024-03-02T12:40:15;3.50;;;3.20;;
8066;SDS011;4076;48.076;9.118;2024-03-02T12:42:43;3.20;;;3.00;;
8066;SDS011;4076;48.076;9.118;2024-03-02T12:45:12;2.30;;;2.10;;
8066;SDS011;4076;48.076;9.118;2024-03-02T12:47:41;2.80;;;2.60;;
8066;SDS011;4076;48.076;9.118;2024-03-02T12:50:08;2.53;;;2.33;;
8066;SDS011;4076;48.076;9.118;2024-03-02T12:52:35;2.53;;;2.37;;
8066;SDS011;4076;48.076;9.118;2024-03-02T12:55:01;2.70;;;2.50;;
8066;SDS011;4076;48.076;9.118;2024-03-02T12:57:29;1.97;;;1.80;;
8066;SDS011;4076;48.076;9.118;2024-03-02T12:59:59;2.90;;;2.70;;
8066;SDS011;4076;48.076;9.118;2024-03-02T13:02:30;4.40;;;2.90;;
8066;SDS011;4076;48.076;9.118;2024-03-02T13:04:56;2.50;;;2.30;;
8066;SDS011;4076;48.076;9.118;2024-03-02T13:07:23;3.57;;;3.27;;
8066;SDS011;4076;48.076;9.118;2024-03-02T13:09:50;2.40;;;2.20;;
8066;SDS011;4076;48.076;9.118;2024-03-02T13:12:17;2.07;;;1.97;;
8066;SDS011;4076;48.076;9.118;2024-03-02T13:14:43;2.43;;;2.33;;
8066;SDS011;4076;48.076;9.118;2024-03-02T13:17:09;2.50;;;2.30;;
8066;SDS011;4076;48.076;9.118;2024-03-02T13:19:35;2.40;;;2.30;;
8066;SDS011;4076;48.076;9.118;2024-03-02T13:22:00;2.00;;;1.80;;
8066;SDS011;4076;48.076;9.118;2024-03-02T13:24:29;1.80;;;1.70;;
8066;SDS011;4076;48.076;9.118;2024-03-02T13:26:55;2.60;;;2.40;;
8066;SDS011;4076;48.076;9.118;2024-03-02T13:29:23;2.00;;;1.80;;
8066;SDS011;4076;48.076;9.118;2024-03-02T13:31:49;1.97;;;1.87;;
8066;SDS011;4076;48.076;9.118;2024-03-02T13:34:15;2.50;;;2.30;;
8066;SDS011;4076;48.076;9.118;2024-03-02T13:36:40;2.87;;;2.47;;
8066;SDS011;4076;48.076;9.118;2024-03-02T13:39:06;2.30;;;2.10;;
8066;SDS011;4076;48.076;9.118;2024-03-02T13:41:34;2.93;;;2.30;;
8066;SDS011;4076;48.076;9.118;2024-03-02T13:44:00;2.10;;;1.93;;
8066;SDS011;4076;48.076;9.118;2024-03-02T13:46:26;1.80;;;1.70;;
8066;SDS011;4076;48.076;9.118;2024-03-02T13:48:52;2.43;;;2.07;;
8066;SDS011;4076;48.076;9.118;2024-03-02T13:51:18;1.67;;;1.50;;
8066;SDS011;4076;48.076;9.118;2024-03-02T13:53:44;2.50;;;1.60;;
8066;SDS011;4076;48.076;9.118;2024-03-02T13:56:14;1.93;;;1.30;;
8066;SDS011;4076;48.076;9.118;2024-03-02T13:58:42;1.97;;;1.83;;
8066;SDS011;4076;48.076;9.118;2024-03-02T14:01:08;1.77;;;1.67;;
8066;SDS011;4076;48.076;9.118;2024-03-02T14:03:34;1.13;;;1.00;;
8066;SDS011;4076;48.076;9.118;2024-03-02T14:05:59;2.80;;;1.00;;
8066;SDS011;4076;48.076;9.118;2024-03-02T14:08:25;1.40;;;1.30;;
8066;SDS011;4076;48.076;9.118;2024-03-02T14:10:51;1.20;;;1.10;;
8066;SDS011;4076;48.076;9.118;2024-03-02T14:13:16;1.93;;;1.67;;
8066;SDS011;4076;48.076;9.118;2024-03-02T14:15:42;1.60;;;1.50;;
8066;SDS011;4076;48.076;9.118;2024-03-02T14:18:07;1.53;;;1.43;;
8066;SDS011;4076;48.076;9.118;2024-03-02T14:20:35;1.63;;;1.53;;
8066;SDS011;4076;48.076;9.118;2024-03-02T14:23:01;1.70;;;1.60;;
8066;SDS011;4076;48.076;9.118;2024-03-02T14:25:27;1.83;;;1.73;;
8066;SDS011;4076;48.076;9.118;2024-03-02T14:27:57;2.47;;;2.03;;
8066;SDS011;4076;48.076;9.118;2024-03-02T14:30:23;2.70;;;2.50;;
8066;SDS011;4076;48.076;9.118;2024-03-02T14:32:49;6.10;;;4.50;;
8066;SDS011;4076;48.076;9.118;2024-03-02T14:35:15;2.97;;;2.77;;
8066;SDS011;4076;48.076;9.118;2024-03-02T14:37:41;3.30;;;3.00;;
8066;SDS011;4076;48.076;9.118;2024-03-02T14:40:07;5.40;;;3.00;;
8066;SDS011;4076;48.076;9.118;2024-03-02T14:42:34;3.60;;;3.30;;
8066;SDS011;4076;48.076;9.118;2024-03-02T14:45:00;6.10;;;2.97;;
8066;SDS011;4076;48.076;9.118;2024-03-02T14:47:27;4.03;;;3.53;;
8066;SDS011;4076;48.076;9.118;2024-03-02T14:49:53;4.63;;;2.23;;
8066;SDS011;4076;48.076;9.118;2024-03-02T14:52:18;1.90;;;1.63;;
8066;SDS011;4076;48.076;9.118;2024-03-02T14:54:44;2.57;;;2.37;;
8066;SDS011;4076;48.076;9.118;2024-03-02T14:57:10;2.20;;;2.03;;
8066;SDS011;4076;48.076;9.118;2024-03-02T14:59:36;1.90;;;1.80;;
8066;SDS011;4076;48.076;9.118;2024-03-02T15:02:02;2.50;;;2.30;;
8066;SDS011;4076;48.076;9.118;2024-03-02T15:04:28;2.93;;;2.70;;
8066;SDS011;4076;48.076;9.118;2024-03-02T15:06:53;2.70;;;2.50;;
8066;SDS011;4076;48.076;9.118;2024-03-02T15:09:19;3.30;;;3.10;;
8066;SDS011;4076;48.076;9.118;2024-03-02T15:11:44;3.07;;;2.87;;
8066;SDS011;4076;48.076;9.118;2024-03-02T15:14:11;3.73;;;3.43;;
8066;SDS011;4076;48.076;9.118;2024-03-02T15:16:36;3.00;;;2.80;;